sensor_id;sensor_type;location;lat;lon;timestamp;temperature;humidity
40538;DHT22;27925;41.874;12.526;2023-03-01T00:01:08;10.90;86.70
40538;DHT22;27925;41.874;12.526;2023-03-01T00:03:35;11.00;86.60
40538;DHT22;27925;41.874;12.526;2023-03-01T00:06:01;11.00;86.60
40538;DHT22;27925;41.874;12.526;2023-03-01T00:08:27;10.90;86.70
40538;DHT22;27925;41.874;12.526;2023-03-01T00:13:30;10.70;86.80
40538;DHT22;27925;41.874;12.526;2023-03-01T00:15:56;10.70;87.50
40538;DHT22;27925;41.874;12.526;2023-03-01T00:18:22;10.80;87.20
40538;DHT22;27925;41.874;12.526;2023-03-01T00:20:53;10.80;87.40
40538;DHT22;27925;41.874;12.526;2023-03-01T00:23:20;10.90;87.50
40538;DHT22;27925;41.874;12.526;2023-03-01T00:25:46;10.80;87.40
40538;DHT22;27925;41.874;12.526;2023-03-01T00:28:11;10.90;87.60
40538;DHT22;27925;41.874;12.526;2023-03-01T00:30:37;10.90;87.80
40538;DHT22;27925;41.874;12.526;2023-03-01T00:33:03;10.90;88.70
40538;DHT22;27925;41.874;12.526;2023-03-01T00:35:29;10.90;88.20
40538;DHT22;27925;41.874;12.526;2023-03-01T00:37:56;11.00;88.30
40538;DHT22;27925;41.874;12.526;2023-03-01T00:40:27;11.00;88.20
40538;DHT22;27925;41.874;12.526;2023-03-01T00:42:53;11.00;88.40
40538;DHT22;27925;41.874;12.526;2023-03-01T00:45:19;10.90;88.30
40538;DHT22;27925;41.874;12.526;2023-03-01T00:47:44;10.90;88.40
40538;DHT22;27925;41.874;12.526;2023-03-01T00:50:10;10.90;88.70
40538;DHT22;27925;41.874;12.526;2023-03-01T00:52:37;10.90;88.70
40538;DHT22;27925;41.874;12.526;2023-03-01T00:55:03;11.00;88.80
40538;DHT22;27925;41.874;12.526;2023-03-01T00:57:29;10.90;88.60
40538;DHT22;27925;41.874;12.526;2023-03-01T00:59:55;10.80;88.90
40538;DHT22;27925;41.874;12.526;2023-03-01T01:02:21;10.80;89.10
40538;DHT22;27925;41.874;12.526;2023-03-01T01:04:47;10.80;89.40
40538;DHT22;27925;41.874;12.526;2023-03-01T01:07:13;10.80;89.20
40538;DHT22;27925;41.874;12.526;2023-03-01T01:09:40;10.90;89.30
40538;DHT22;27925;41.874;12.526;2023-03-01T01:12:06;10.90;89.40
40538;DHT22;27925;41.874;12.526;2023-03-01T01:14:32;10.90;89.20
40538;DHT22;27925;41.874;12.526;2023-03-01T01:16:57;10.90;89.00
40538;DHT22;27925;41.874;12.526;2023-03-01T01:19:24;10.90;89.50
40538;DHT22;27925;41.874;12.526;2023-03-01T01:21:50;11.00;89.50
40538;DHT22;27925;41.874;12.526;2023-03-01T01:24:16;11.00;89.50
40538;DHT22;27925;41.874;12.526;2023-03-01T01:26:42;11.00;89.60
40538;DHT22;27925;41.874;12.526;2023-03-01T01:29:08;11.00;89.40
40538;DHT22;27925;41.874;12.526;2023-03-01T01:31:36;11.00;89.70
40538;DHT22;27925;41.874;12.526;2023-03-01T01:34:04;11.00;89.60
40538;DHT22;27925;41.874;12.526;2023-03-01T01:36:31;11.00;89.70
40538;DHT22;27925;41.874;12.526;2023-03-01T01:38:57;11.00;89.60
40538;DHT22;27925;41.874;12.526;2023-03-01T01:41:24;11.00;89.40
40538;DHT22;27925;41.874;12.526;2023-03-01T01:46:38;11.00;89.30
40538;DHT22;27925;41.874;12.526;2023-03-01T01:49:29;11.00;89.40
40538;DHT22;27925;41.874;12.526;2023-03-01T01:54:35;11.10;89.40
40538;DHT22;27925;41.874;12.526;2023-03-01T01:57:05;11.10;89.20
40538;DHT22;27925;41.874;12.526;2023-03-01T01:59:32;11.10;89.40
40538;DHT22;27925;41.874;12.526;2023-03-01T02:02:01;11.10;89.20
40538;DHT22;27925;41.874;12.526;2023-03-01T02:04:28;11.10;89.30
40538;DHT22;27925;41.874;12.526;2023-03-01T02:07:05;11.10;89.40
40538;DHT22;27925;41.874;12.526;2023-03-01T02:09:33;11.10;89.00
40538;DHT22;27925;41.874;12.526;2023-03-01T02:12:00;11.10;89.50
40538;DHT22;27925;41.874;12.526;2023-03-01T02:14:26;11.10;89.40
40538;DHT22;27925;41.874;12.526;2023-03-01T02:16:52;11.00;89.40
40538;DHT22;27925;41.874;12.526;2023-03-01T02:20:16;11.00;89.70
40538;DHT22;27925;41.874;12.526;2023-03-01T02:25:46;10.90;89.70
40538;DHT22;27925;41.874;12.526;2023-03-01T02:28:02;10.90;90.10
40538;DHT22;27925;41.874;12.526;2023-03-01T02:30:31;10.90;89.80
40538;DHT22;27925;41.874;12.526;2023-03-01T02:32:59;10.90;90.10
40538;DHT22;27925;41.874;12.526;2023-03-01T02:35:36;10.80;90.00
40538;DHT22;27925;41.874;12.526;2023-03-01T02:38:03;10.70;90.10
40538;DHT22;27925;41.874;12.526;2023-03-01T02:40:33;10.70;90.10
40538;DHT22;27925;41.874;12.526;2023-03-01T02:42:59;10.60;90.30
40538;DHT22;27925;41.874;12.526;2023-03-01T02:45:26;10.60;90.10
40538;DHT22;27925;41.874;12.526;2023-03-01T02:47:56;10.50;90.30
40538;DHT22;27925;41.874;12.526;2023-03-01T02:53:25;10.50;90.30
40538;DHT22;27925;41.874;12.526;2023-03-01T02:55:53;10.50;90.30
40538;DHT22;27925;41.874;12.526;2023-03-01T02:58:19;10.50;90.20
40538;DHT22;27925;41.874;12.526;2023-03-01T03:00:46;10.50;90.30
40538;DHT22;27925;41.874;12.526;2023-03-01T03:03:16;10.60;90.20
40538;DHT22;27925;41.874;12.526;2023-03-01T03:05:42;10.50;90.20
40538;DHT22;27925;41.874;12.526;2023-03-01T03:08:08;10.50;90.10
40538;DHT22;27925;41.874;12.526;2023-03-01T03:10:36;10.50;90.00
40538;DHT22;27925;41.874;12.526;2023-03-01T03:13:05;10.50;90.10
40538;DHT22;27925;41.874;12.526;2023-03-01T03:15:33;10.60;90.10
40538;DHT22;27925;41.874;12.526;2023-03-01T03:18:02;10.60;90.20
40538;DHT22;27925;41.874;12.526;2023-03-01T03:20:28;10.60;90.00
40538;DHT22;27925;41.874;12.526;2023-03-01T03:22:56;10.60;89.90
40538;DHT22;27925;41.874;12.526;2023-03-01T03:25:22;10.60;90.00
40538;DHT22;27925;41.874;12.526;2023-03-01T03:27:49;10.60;90.00
40538;DHT22;27925;41.874;12.526;2023-03-01T03:30:17;10.60;90.00
40538;DHT22;27925;41.874;12.526;2023-03-01T03:32:45;10.60;90.00
40538;DHT22;27925;41.874;12.526;2023-03-01T03:35:23;10.60;89.90
40538;DHT22;27925;41.874;12.526;2023-03-01T03:37:51;10.50;89.60
40538;DHT22;27925;41.874;12.526;2023-03-01T03:40:38;10.60;89.80
40538;DHT22;27925;41.874;12.526;2023-03-01T03:43:09;10.50;89.60
40538;DHT22;27925;41.874;12.526;2023-03-01T03:45:35;10.60;89.30
40538;DHT22;27925;41.874;12.526;2023-03-01T03:48:03;10.50;89.10
40538;DHT22;27925;41.874;12.526;2023-03-01T03:50:29;10.50;89.10
40538;DHT22;27925;41.874;12.526;2023-03-01T03:52:54;10.60;89.00
40538;DHT22;27925;41.874;12.526;2023-03-01T03:55:20;10.60;88.50
40538;DHT22;27925;41.874;12.526;2023-03-01T03:57:47;10.60;88.20
40538;DHT22;27925;41.874;12.526;2023-03-01T04:00:21;10.70;87.90
40538;DHT22;27925;41.874;12.526;2023-03-01T04:02:50;10.70;87.30
40538;DHT22;27925;41.874;12.526;2023-03-01T04:05:17;10.80;87.40
40538;DHT22;27925;41.874;12.526;2023-03-01T04:07:44;10.80;87.20
40538;DHT22;27925;41.874;12.526;2023-03-01T04:10:14;10.80;87.20
40538;DHT22;27925;41.874;12.526;2023-03-01T04:12:40;10.80;86.70
40538;DHT22;27925;41.874;12.526;2023-03-01T04:15:07;10.80;86.70
40538;DHT22;27925;41.874;12.526;2023-03-01T04:17:44;10.80;86.30
40538;DHT22;27925;41.874;12.526;2023-03-01T04:20:18;10.80;86.60
40538;DHT22;27925;41.874;12.526;2023-03-01T04:22:51;10.80;86.50
40538;DHT22;27925;41.874;12.526;2023-03-01T04:25:17;10.80;86.50
40538;DHT22;27925;41.874;12.526;2023-03-01T04:27:43;10.80;86.30
40538;DHT22;27925;41.874;12.526;2023-03-01T04:30:10;10.80;86.10
40538;DHT22;27925;41.874;12.526;2023-03-01T04:32:36;10.70;86.10
40538;DHT22;27925;41.874;12.526;2023-03-01T04:35:01;10.70;86.10
40538;DHT22;27925;41.874;12.526;2023-03-01T04:37:27;10.70;86.10
40538;DHT22;27925;41.874;12.526;2023-03-01T04:39:53;10.70;86.10
40538;DHT22;27925;41.874;12.526;2023-03-01T04:42:19;10.70;85.20
40538;DHT22;27925;41.874;12.526;2023-03-01T04:44:45;10.70;85.10
40538;DHT22;27925;41.874;12.526;2023-03-01T04:47:11;10.70;84.70
40538;DHT22;27925;41.874;12.526;2023-03-01T04:49:37;10.70;84.50
40538;DHT22;27925;41.874;12.526;2023-03-01T04:52:03;10.70;84.40
40538;DHT22;27925;41.874;12.526;2023-03-01T04:54:31;10.60;84.10
40538;DHT22;27925;41.874;12.526;2023-03-01T04:56:58;10.60;83.90
40538;DHT22;27925;41.874;12.526;2023-03-01T04:59:24;10.60;83.90
40538;DHT22;27925;41.874;12.526;2023-03-01T05:01:51;10.50;83.80
40538;DHT22;27925;41.874;12.526;2023-03-01T05:04:16;10.50;83.50
40538;DHT22;27925;41.874;12.526;2023-03-01T05:06:42;10.50;83.60
40538;DHT22;27925;41.874;12.526;2023-03-01T05:09:08;10.50;83.60
40538;DHT22;27925;41.874;12.526;2023-03-01T05:11:34;10.50;83.50
40538;DHT22;27925;41.874;12.526;2023-03-01T05:14:05;10.50;83.80
40538;DHT22;27925;41.874;12.526;2023-03-01T05:16:31;10.50;83.80
40538;DHT22;27925;41.874;12.526;2023-03-01T05:18:58;10.50;83.50
40538;DHT22;27925;41.874;12.526;2023-03-01T05:21:24;10.50;83.30
40538;DHT22;27925;41.874;12.526;2023-03-01T05:23:50;10.50;83.20
40538;DHT22;27925;41.874;12.526;2023-03-01T05:26:19;10.50;83.30
40538;DHT22;27925;41.874;12.526;2023-03-01T05:28:47;10.50;82.80
40538;DHT22;27925;41.874;12.526;2023-03-01T05:31:13;10.40;82.70
40538;DHT22;27925;41.874;12.526;2023-03-01T05:33:40;10.40;82.20
40538;DHT22;27925;41.874;12.526;2023-03-01T05:36:08;10.40;82.20
40538;DHT22;27925;41.874;12.526;2023-03-01T05:38:35;10.40;82.10
40538;DHT22;27925;41.874;12.526;2023-03-01T05:41:01;10.40;81.80
40538;DHT22;27925;41.874;12.526;2023-03-01T05:43:30;10.50;81.40
40538;DHT22;27925;41.874;12.526;2023-03-01T05:45:57;10.50;81.10
40538;DHT22;27925;41.874;12.526;2023-03-01T05:48:23;10.50;80.90
40538;DHT22;27925;41.874;12.526;2023-03-01T05:50:49;10.50;80.90
40538;DHT22;27925;41.874;12.526;2023-03-01T05:53:19;10.40;81.10
40538;DHT22;27925;41.874;12.526;2023-03-01T05:55:46;10.40;81.40
40538;DHT22;27925;41.874;12.526;2023-03-01T05:58:18;10.50;82.30
40538;DHT22;27925;41.874;12.526;2023-03-01T06:00:46;10.50;81.60
40538;DHT22;27925;41.874;12.526;2023-03-01T06:03:14;10.40;81.10
40538;DHT22;27925;41.874;12.526;2023-03-01T06:05:40;10.40;81.30
40538;DHT22;27925;41.874;12.526;2023-03-01T06:08:06;10.40;80.80
40538;DHT22;27925;41.874;12.526;2023-03-01T06:10:32;10.50;80.80
40538;DHT22;27925;41.874;12.526;2023-03-01T06:12:58;10.50;80.30
40538;DHT22;27925;41.874;12.526;2023-03-01T06:15:25;10.60;80.40
40538;DHT22;27925;41.874;12.526;2023-03-01T06:17:51;10.60;80.10
40538;DHT22;27925;41.874;12.526;2023-03-01T06:20:22;10.60;79.70
40538;DHT22;27925;41.874;12.526;2023-03-01T06:22:48;10.60;79.50
40538;DHT22;27925;41.874;12.526;2023-03-01T06:25:20;10.60;79.50
40538;DHT22;27925;41.874;12.526;2023-03-01T06:27:46;10.70;79.90
40538;DHT22;27925;41.874;12.526;2023-03-01T06:30:14;10.70;79.60
40538;DHT22;27925;41.874;12.526;2023-03-01T06:32:41;10.80;79.90
40538;DHT22;27925;41.874;12.526;2023-03-01T06:35:12;10.80;79.60
40538;DHT22;27925;41.874;12.526;2023-03-01T06:37:38;10.90;79.80
40538;DHT22;27925;41.874;12.526;2023-03-01T06:40:05;11.00;79.70
40538;DHT22;27925;41.874;12.526;2023-03-01T06:42:41;11.10;79.50
40538;DHT22;27925;41.874;12.526;2023-03-01T06:45:09;11.20;79.10
40538;DHT22;27925;41.874;12.526;2023-03-01T06:47:34;11.30;79.00
40538;DHT22;27925;41.874;12.526;2023-03-01T06:50:01;11.30;78.30
40538;DHT22;27925;41.874;12.526;2023-03-01T06:52:27;11.20;78.60
40538;DHT22;27925;41.874;12.526;2023-03-01T06:54:53;11.30;78.30
40538;DHT22;27925;41.874;12.526;2023-03-01T06:57:19;11.20;78.10
40538;DHT22;27925;41.874;12.526;2023-03-01T06:59:46;11.20;78.30
40538;DHT22;27925;41.874;12.526;2023-03-01T07:02:13;11.20;78.30
40538;DHT22;27925;41.874;12.526;2023-03-01T07:04:40;11.20;78.30
40538;DHT22;27925;41.874;12.526;2023-03-01T07:07:07;11.20;78.90
40538;DHT22;27925;41.874;12.526;2023-03-01T07:09:32;11.20;78.80
40538;DHT22;27925;41.874;12.526;2023-03-01T07:11:58;11.20;78.50
40538;DHT22;27925;41.874;12.526;2023-03-01T07:14:24;11.30;78.80
40538;DHT22;27925;41.874;12.526;2023-03-01T07:16:51;11.40;78.50
40538;DHT22;27925;41.874;12.526;2023-03-01T07:19:17;11.60;78.30
40538;DHT22;27925;41.874;12.526;2023-03-01T07:21:43;11.70;77.80
40538;DHT22;27925;41.874;12.526;2023-03-01T07:24:09;11.70;76.90
40538;DHT22;27925;41.874;12.526;2023-03-01T07:26:35;11.80;77.20
40538;DHT22;27925;41.874;12.526;2023-03-01T07:29:02;11.80;77.10
40538;DHT22;27925;41.874;12.526;2023-03-01T07:31:28;11.80;77.30
40538;DHT22;27925;41.874;12.526;2023-03-01T07:33:57;11.80;77.50
40538;DHT22;27925;41.874;12.526;2023-03-01T07:36:23;11.90;77.70
40538;DHT22;27925;41.874;12.526;2023-03-01T07:38:50;11.90;77.30
40538;DHT22;27925;41.874;12.526;2023-03-01T07:41:16;11.90;77.50
40538;DHT22;27925;41.874;12.526;2023-03-01T07:43:41;12.00;77.10
40538;DHT22;27925;41.874;12.526;2023-03-01T07:46:07;12.00;77.00
40538;DHT22;27925;41.874;12.526;2023-03-01T07:48:34;12.00;76.70
40538;DHT22;27925;41.874;12.526;2023-03-01T07:51:00;12.00;76.90
40538;DHT22;27925;41.874;12.526;2023-03-01T07:53:27;11.90;76.50
40538;DHT22;27925;41.874;12.526;2023-03-01T07:56:09;11.90;76.40
40538;DHT22;27925;41.874;12.526;2023-03-01T07:58:36;11.90;77.60
40538;DHT22;27925;41.874;12.526;2023-03-01T08:01:03;12.00;76.60
40538;DHT22;27925;41.874;12.526;2023-03-01T08:03:29;12.10;76.40
40538;DHT22;27925;41.874;12.526;2023-03-01T08:05:55;12.30;76.50
40538;DHT22;27925;41.874;12.526;2023-03-01T08:08:21;12.30;76.10
40538;DHT22;27925;41.874;12.526;2023-03-01T08:10:47;12.30;75.90
40538;DHT22;27925;41.874;12.526;2023-03-01T08:13:12;12.30;76.00
40538;DHT22;27925;41.874;12.526;2023-03-01T08:15:38;12.30;76.30
40538;DHT22;27925;41.874;12.526;2023-03-01T08:18:04;12.30;76.10
40538;DHT22;27925;41.874;12.526;2023-03-01T08:20:29;12.30;75.80
40538;DHT22;27925;41.874;12.526;2023-03-01T08:22:57;12.40;76.00
40538;DHT22;27925;41.874;12.526;2023-03-01T08:25:23;12.40;75.60
40538;DHT22;27925;41.874;12.526;2023-03-01T08:27:49;12.60;75.80
40538;DHT22;27925;41.874;12.526;2023-03-01T08:30:15;12.60;75.30
40538;DHT22;27925;41.874;12.526;2023-03-01T08:32:41;12.80;75.20
40538;DHT22;27925;41.874;12.526;2023-03-01T08:35:07;12.90;75.10
40538;DHT22;27925;41.874;12.526;2023-03-01T08:37:33;13.00;75.00
40538;DHT22;27925;41.874;12.526;2023-03-01T08:39:59;13.10;74.30
40538;DHT22;27925;41.874;12.526;2023-03-01T08:42:26;13.10;74.00
40538;DHT22;27925;41.874;12.526;2023-03-01T08:44:51;13.10;73.30
40538;DHT22;27925;41.874;12.526;2023-03-01T08:47:17;13.00;73.90
40538;DHT22;27925;41.874;12.526;2023-03-01T08:49:43;13.00;74.30
40538;DHT22;27925;41.874;12.526;2023-03-01T08:52:09;13.00;74.20
40538;DHT22;27925;41.874;12.526;2023-03-01T08:54:34;13.00;73.80
40538;DHT22;27925;41.874;12.526;2023-03-01T08:57:03;13.10;73.90
40538;DHT22;27925;41.874;12.526;2023-03-01T08:59:29;13.10;73.60
40538;DHT22;27925;41.874;12.526;2023-03-01T09:01:55;13.10;73.40
40538;DHT22;27925;41.874;12.526;2023-03-01T09:04:21;13.00;73.50
40538;DHT22;27925;41.874;12.526;2023-03-01T09:06:47;13.00;73.60
40538;DHT22;27925;41.874;12.526;2023-03-01T09:09:15;13.10;73.50
40538;DHT22;27925;41.874;12.526;2023-03-01T09:11:42;13.10;73.20
40538;DHT22;27925;41.874;12.526;2023-03-01T09:14:09;13.10;73.00
40538;DHT22;27925;41.874;12.526;2023-03-01T09:16:34;13.10;72.70
40538;DHT22;27925;41.874;12.526;2023-03-01T09:19:03;13.20;72.90
40538;DHT22;27925;41.874;12.526;2023-03-01T09:21:29;13.20;72.70
40538;DHT22;27925;41.874;12.526;2023-03-01T09:23:56;13.10;72.70
40538;DHT22;27925;41.874;12.526;2023-03-01T09:26:23;13.10;73.40
40538;DHT22;27925;41.874;12.526;2023-03-01T09:28:51;13.20;72.90
40538;DHT22;27925;41.874;12.526;2023-03-01T09:31:19;13.20;73.00
40538;DHT22;27925;41.874;12.526;2023-03-01T09:33:47;13.30;72.90
40538;DHT22;27925;41.874;12.526;2023-03-01T09:36:16;13.30;72.70
40538;DHT22;27925;41.874;12.526;2023-03-01T09:38:43;13.30;72.80
40538;DHT22;27925;41.874;12.526;2023-03-01T09:41:17;13.40;72.80
40538;DHT22;27925;41.874;12.526;2023-03-01T09:43:52;13.30;72.60
40538;DHT22;27925;41.874;12.526;2023-03-01T09:46:22;13.30;72.70
40538;DHT22;27925;41.874;12.526;2023-03-01T09:49:01;13.20;72.80
40538;DHT22;27925;41.874;12.526;2023-03-01T09:51:35;13.30;73.00
40538;DHT22;27925;41.874;12.526;2023-03-01T09:54:03;13.40;73.10
40538;DHT22;27925;41.874;12.526;2023-03-01T09:59:39;13.70;72.30
40538;DHT22;27925;41.874;12.526;2023-03-01T10:02:41;13.90;72.30
40538;DHT22;27925;41.874;12.526;2023-03-01T10:08:26;14.40;70.90
40538;DHT22;27925;41.874;12.526;2023-03-01T10:10:54;14.50;70.00
40538;DHT22;27925;41.874;12.526;2023-03-01T10:16:14;14.30;68.50
40538;DHT22;27925;41.874;12.526;2023-03-01T10:18:43;14.20;68.10
40538;DHT22;27925;41.874;12.526;2023-03-01T10:21:19;14.20;68.30
40538;DHT22;27925;41.874;12.526;2023-03-01T10:23:46;14.20;68.50
40538;DHT22;27925;41.874;12.526;2023-03-01T10:29:08;14.30;68.80
40538;DHT22;27925;41.874;12.526;2023-03-01T10:31:46;14.50;68.50
40538;DHT22;27925;41.874;12.526;2023-03-01T10:36:42;14.60;68.20
40538;DHT22;27925;41.874;12.526;2023-03-01T10:39:18;14.70;67.90
40538;DHT22;27925;41.874;12.526;2023-03-01T10:42:18;14.70;67.70
40538;DHT22;27925;41.874;12.526;2023-03-01T10:44:46;14.60;67.70
40538;DHT22;27925;41.874;12.526;2023-03-01T10:50:02;14.50;67.70
40538;DHT22;27925;41.874;12.526;2023-03-01T10:52:37;14.50;67.80
40538;DHT22;27925;41.874;12.526;2023-03-01T10:55:26;14.40;67.80
40538;DHT22;27925;41.874;12.526;2023-03-01T11:00:52;14.40;68.70
40538;DHT22;27925;41.874;12.526;2023-03-01T11:06:20;14.50;69.50
40538;DHT22;27925;41.874;12.526;2023-03-01T11:08:48;14.50;69.10
40538;DHT22;27925;41.874;12.526;2023-03-01T11:11:17;14.50;68.80
40538;DHT22;27925;41.874;12.526;2023-03-01T11:16:26;14.60;69.20
40538;DHT22;27925;41.874;12.526;2023-03-01T11:21:37;14.70;68.50
40538;DHT22;27925;41.874;12.526;2023-03-01T11:24:08;14.80;67.50
40538;DHT22;27925;41.874;12.526;2023-03-01T11:26:39;15.00;67.50
40538;DHT22;27925;41.874;12.526;2023-03-01T11:29:34;15.20;66.90
40538;DHT22;27925;41.874;12.526;2023-03-01T11:32:00;15.30;66.80
40538;DHT22;27925;41.874;12.526;2023-03-01T11:37:40;15.10;66.90
